sensor_id;sensor_type;location;lat;lon;timestamp;temperature;humidity
14850;DHT22;7517;48.400;11.770;2023-07-02T00:00:13;23.00;65.40
14850;DHT22;7517;48.400;11.770;2023-07-02T00:02:40;23.00;65.50
14850;DHT22;7517;48.400;11.770;2023-07-02T00:05:08;23.00;65.60
14850;DHT22;7517;48.400;11.770;2023-07-02T00:07:35;22.90;65.50
14850;DHT22;7517;48.400;11.770;2023-07-02T00:10:03;22.90;65.60
14850;DHT22;7517;48.400;11.770;2023-07-02T00:12:32;22.90;65.80
14850;DHT22;7517;48.400;11.770;2023-07-02T00:15:00;22.90;66.70
14850;DHT22;7517;48.400;11.770;2023-07-02T00:17:28;22.90;65.90
14850;DHT22;7517;48.400;11.770;2023-07-02T00:19:56;22.80;66.00
14850;DHT22;7517;48.400;11.770;2023-07-02T00:22:31;22.90;66.10
14850;DHT22;7517;48.400;11.770;2023-07-02T00:25:02;22.80;66.10
14850;DHT22;7517;48.400;11.770;2023-07-02T00:27:29;22.80;66.30
14850;DHT22;7517;48.400;11.770;2023-07-02T00:29:58;22.80;66.40
14850;DHT22;7517;48.400;11.770;2023-07-02T00:32:25;22.80;66.60
14850;DHT22;7517;48.400;11.770;2023-07-02T00:34:52;22.80;66.60
14850;DHT22;7517;48.400;11.770;2023-07-02T00:37:19;22.80;66.70
14850;DHT22;7517;48.400;11.770;2023-07-02T00:39:47;22.80;66.70
14850;DHT22;7517;48.400;11.770;2023-07-02T00:42:14;22.80;66.80
14850;DHT22;7517;48.400;11.770;2023-07-02T00:44:41;22.80;66.80
14850;DHT22;7517;48.400;11.770;2023-07-02T00:47:11;22.80;66.70
14850;DHT22;7517;48.400;11.770;2023-07-02T00:49:39;22.80;66.80
14850;DHT22;7517;48.400;11.770;2023-07-02T00:52:07;22.80;66.80
14850;DHT22;7517;48.400;11.770;2023-07-02T00:54:34;22.80;66.90
14850;DHT22;7517;48.400;11.770;2023-07-02T00:57:01;22.80;66.90
14850;DHT22;7517;48.400;11.770;2023-07-02T00:59:29;22.80;67.60
14850;DHT22;7517;48.400;11.770;2023-07-02T01:01:56;22.70;66.90
14850;DHT22;7517;48.400;11.770;2023-07-02T01:04:25;22.70;66.90
14850;DHT22;7517;48.400;11.770;2023-07-02T01:06:53;22.70;67.00
14850;DHT22;7517;48.400;11.770;2023-07-02T01:09:23;22.70;67.00
14850;DHT22;7517;48.400;11.770;2023-07-02T01:11:54;22.70;67.00
14850;DHT22;7517;48.400;11.770;2023-07-02T01:14:27;22.70;67.00
14850;DHT22;7517;48.400;11.770;2023-07-02T01:17:00;22.70;67.10
14850;DHT22;7517;48.400;11.770;2023-07-02T01:19:45;22.70;67.20
14850;DHT22;7517;48.400;11.770;2023-07-02T01:22:17;22.70;67.40
14850;DHT22;7517;48.400;11.770;2023-07-02T01:24:46;22.70;67.20
14850;DHT22;7517;48.400;11.770;2023-07-02T01:27:15;22.70;67.30
14850;DHT22;7517;48.400;11.770;2023-07-02T01:29:43;22.70;67.30
14850;DHT22;7517;48.400;11.770;2023-07-02T01:32:12;22.70;67.50
14850;DHT22;7517;48.400;11.770;2023-07-02T01:34:40;22.60;67.50
14850;DHT22;7517;48.400;11.770;2023-07-02T01:37:11;22.60;67.50
14850;DHT22;7517;48.400;11.770;2023-07-02T01:39:38;22.60;67.60
14850;DHT22;7517;48.400;11.770;2023-07-02T01:42:10;22.60;67.60
14850;DHT22;7517;48.400;11.770;2023-07-02T01:44:38;22.60;67.80
14850;DHT22;7517;48.400;11.770;2023-07-02T01:47:06;22.60;67.80
14850;DHT22;7517;48.400;11.770;2023-07-02T01:49:33;22.60;67.70
14850;DHT22;7517;48.400;11.770;2023-07-02T01:52:02;22.60;67.70
14850;DHT22;7517;48.400;11.770;2023-07-02T01:54:33;22.60;67.80
14850;DHT22;7517;48.400;11.770;2023-07-02T01:57:02;22.60;68.00
14850;DHT22;7517;48.400;11.770;2023-07-02T01:59:31;22.60;67.90
14850;DHT22;7517;48.400;11.770;2023-07-02T02:01:58;22.60;68.00
14850;DHT22;7517;48.400;11.770;2023-07-02T02:04:26;22.60;68.00
14850;DHT22;7517;48.400;11.770;2023-07-02T02:06:53;22.60;68.00
14850;DHT22;7517;48.400;11.770;2023-07-02T02:09:21;22.60;68.10
14850;DHT22;7517;48.400;11.770;2023-07-02T02:11:50;22.60;68.10
14850;DHT22;7517;48.400;11.770;2023-07-02T02:14:18;22.60;68.30
14850;DHT22;7517;48.400;11.770;2023-07-02T02:16:45;22.60;68.20
14850;DHT22;7517;48.400;11.770;2023-07-02T02:19:12;22.60;68.20
14850;DHT22;7517;48.400;11.770;2023-07-02T02:21:40;22.60;68.30
14850;DHT22;7517;48.400;11.770;2023-07-02T02:24:07;22.60;68.30
14850;DHT22;7517;48.400;11.770;2023-07-02T02:26:35;22.60;68.30
14850;DHT22;7517;48.400;11.770;2023-07-02T02:29:04;22.60;68.40
14850;DHT22;7517;48.400;11.770;2023-07-02T02:31:34;22.60;68.50
14850;DHT22;7517;48.400;11.770;2023-07-02T02:34:01;22.60;68.40
14850;DHT22;7517;48.400;11.770;2023-07-02T02:36:28;22.60;68.50
14850;DHT22;7517;48.400;11.770;2023-07-02T02:38:55;22.60;69.20
14850;DHT22;7517;48.400;11.770;2023-07-02T02:41:23;22.60;68.50
14850;DHT22;7517;48.400;11.770;2023-07-02T02:43:50;22.60;68.60
14850;DHT22;7517;48.400;11.770;2023-07-02T02:46:22;22.60;68.60
14850;DHT22;7517;48.400;11.770;2023-07-02T02:48:49;22.70;68.80
14850;DHT22;7517;48.400;11.770;2023-07-02T02:51:18;22.70;68.70
14850;DHT22;7517;48.400;11.770;2023-07-02T02:53:45;22.70;69.70
14850;DHT22;7517;48.400;11.770;2023-07-02T02:56:12;22.70;69.00
14850;DHT22;7517;48.400;11.770;2023-07-02T02:58:40;22.70;69.40
14850;DHT22;7517;48.400;11.770;2023-07-02T03:01:07;22.70;69.20
14850;DHT22;7517;48.400;11.770;2023-07-02T03:03:38;22.60;69.60
14850;DHT22;7517;48.400;11.770;2023-07-02T03:06:11;22.60;68.60
14850;DHT22;7517;48.400;11.770;2023-07-02T03:08:40;22.50;68.40
14850;DHT22;7517;48.400;11.770;2023-07-02T03:11:07;22.40;68.60
14850;DHT22;7517;48.400;11.770;2023-07-02T03:13:34;22.40;68.70
14850;DHT22;7517;48.400;11.770;2023-07-02T03:16:02;22.30;68.60
14850;DHT22;7517;48.400;11.770;2023-07-02T03:18:29;22.30;68.40
14850;DHT22;7517;48.400;11.770;2023-07-02T03:20:58;22.20;68.10
14850;DHT22;7517;48.400;11.770;2023-07-02T03:23:25;22.20;68.50
14850;DHT22;7517;48.400;11.770;2023-07-02T03:25:53;22.10;68.70
14850;DHT22;7517;48.400;11.770;2023-07-02T03:28:20;22.10;68.80
14850;DHT22;7517;48.400;11.770;2023-07-02T03:30:47;22.10;68.80
14850;DHT22;7517;48.400;11.770;2023-07-02T03:33:14;22.00;69.60
14850;DHT22;7517;48.400;11.770;2023-07-02T03:35:42;22.00;69.00
14850;DHT22;7517;48.400;11.770;2023-07-02T03:38:10;21.90;68.90
14850;DHT22;7517;48.400;11.770;2023-07-02T03:40:38;21.90;69.00
14850;DHT22;7517;48.400;11.770;2023-07-02T03:43:06;21.80;68.90
14850;DHT22;7517;48.400;11.770;2023-07-02T03:45:33;21.80;68.90
14850;DHT22;7517;48.400;11.770;2023-07-02T03:48:02;21.80;69.00
14850;DHT22;7517;48.400;11.770;2023-07-02T03:50:30;21.70;69.00
14850;DHT22;7517;48.400;11.770;2023-07-02T03:52:57;21.70;68.90
14850;DHT22;7517;48.400;11.770;2023-07-02T03:55:26;21.70;69.00
14850;DHT22;7517;48.400;11.770;2023-07-02T03:57:53;21.70;69.10
14850;DHT22;7517;48.400;11.770;2023-07-02T04:00:21;21.70;68.90
14850;DHT22;7517;48.400;11.770;2023-07-02T04:02:48;21.60;68.90
14850;DHT22;7517;48.400;11.770;2023-07-02T04:05:15;21.60;69.20
14850;DHT22;7517;48.400;11.770;2023-07-02T04:07:42;21.60;69.40
14850;DHT22;7517;48.400;11.770;2023-07-02T04:10:10;21.60;69.50
14850;DHT22;7517;48.400;11.770;2023-07-02T04:12:39;21.60;69.60
14850;DHT22;7517;48.400;11.770;2023-07-02T04:15:08;21.60;69.70
14850;DHT22;7517;48.400;11.770;2023-07-02T04:17:36;21.60;69.80
14850;DHT22;7517;48.400;11.770;2023-07-02T04:20:04;21.60;69.70
14850;DHT22;7517;48.400;11.770;2023-07-02T04:22:33;21.60;69.70
14850;DHT22;7517;48.400;11.770;2023-07-02T04:25:00;21.60;69.80
14850;DHT22;7517;48.400;11.770;2023-07-02T04:27:27;21.60;69.90
14850;DHT22;7517;48.400;11.770;2023-07-02T04:29:56;21.60;69.80
14850;DHT22;7517;48.400;11.770;2023-07-02T04:32:23;21.60;69.70
14850;DHT22;7517;48.400;11.770;2023-07-02T04:34:50;21.70;69.80
14850;DHT22;7517;48.400;11.770;2023-07-02T04:37:17;21.70;69.80
14850;DHT22;7517;48.400;11.770;2023-07-02T04:39:44;21.70;69.70
14850;DHT22;7517;48.400;11.770;2023-07-02T04:42:12;21.70;69.70
14850;DHT22;7517;48.400;11.770;2023-07-02T04:44:40;21.70;69.60
14850;DHT22;7517;48.400;11.770;2023-07-02T04:47:10;21.70;69.70
14850;DHT22;7517;48.400;11.770;2023-07-02T04:49:38;21.70;69.80
14850;DHT22;7517;48.400;11.770;2023-07-02T04:52:05;21.70;69.70
14850;DHT22;7517;48.400;11.770;2023-07-02T04:54:33;21.80;69.80
14850;DHT22;7517;48.400;11.770;2023-07-02T04:57:00;21.80;69.90
14850;DHT22;7517;48.400;11.770;2023-07-02T04:59:28;21.80;69.60
14850;DHT22;7517;48.400;11.770;2023-07-02T05:01:55;21.80;69.30
14850;DHT22;7517;48.400;11.770;2023-07-02T05:04:24;21.80;69.10
14850;DHT22;7517;48.400;11.770;2023-07-02T05:06:51;21.80;69.00
14850;DHT22;7517;48.400;11.770;2023-07-02T05:09:18;21.80;68.90
14850;DHT22;7517;48.400;11.770;2023-07-02T05:11:45;21.80;68.90
14850;DHT22;7517;48.400;11.770;2023-07-02T05:14:12;21.80;69.10
14850;DHT22;7517;48.400;11.770;2023-07-02T05:16:40;21.80;69.20
14850;DHT22;7517;48.400;11.770;2023-07-02T05:19:07;21.80;69.10
14850;DHT22;7517;48.400;11.770;2023-07-02T05:21:35;21.80;69.80
14850;DHT22;7517;48.400;11.770;2023-07-02T05:24:03;21.80;69.00
14850;DHT22;7517;48.400;11.770;2023-07-02T05:26:31;21.80;69.00
14850;DHT22;7517;48.400;11.770;2023-07-02T05:28:59;21.70;68.90
14850;DHT22;7517;48.400;11.770;2023-07-02T05:31:26;21.70;69.00
14850;DHT22;7517;48.400;11.770;2023-07-02T05:33:54;21.70;68.80
14850;DHT22;7517;48.400;11.770;2023-07-02T05:36:21;21.70;69.00
14850;DHT22;7517;48.400;11.770;2023-07-02T05:38:50;21.70;69.10
14850;DHT22;7517;48.400;11.770;2023-07-02T05:41:20;21.70;69.20
14850;DHT22;7517;48.400;11.770;2023-07-02T05:43:48;21.80;69.50
14850;DHT22;7517;48.400;11.770;2023-07-02T05:46:15;21.70;69.30
14850;DHT22;7517;48.400;11.770;2023-07-02T05:48:42;21.80;69.10
14850;DHT22;7517;48.400;11.770;2023-07-02T05:51:09;21.80;69.10
14850;DHT22;7517;48.400;11.770;2023-07-02T05:53:37;21.80;69.30
14850;DHT22;7517;48.400;11.770;2023-07-02T05:56:06;21.80;69.30
14850;DHT22;7517;48.400;11.770;2023-07-02T05:58:33;21.80;69.40
14850;DHT22;7517;48.400;11.770;2023-07-02T06:01:00;21.90;69.50
14850;DHT22;7517;48.400;11.770;2023-07-02T06:03:28;21.90;69.60
14850;DHT22;7517;48.400;11.770;2023-07-02T06:05:55;21.90;69.30
14850;DHT22;7517;48.400;11.770;2023-07-02T06:08:22;22.00;69.10
14850;DHT22;7517;48.400;11.770;2023-07-02T06:10:49;22.00;69.00
14850;DHT22;7517;48.400;11.770;2023-07-02T06:13:19;22.00;69.00
14850;DHT22;7517;48.400;11.770;2023-07-02T06:15:46;22.10;68.80
14850;DHT22;7517;48.400;11.770;2023-07-02T06:18:13;22.10;68.80
14850;DHT22;7517;48.400;11.770;2023-07-02T06:20:42;22.10;68.80
14850;DHT22;7517;48.400;11.770;2023-07-02T06:23:10;22.10;68.70
14850;DHT22;7517;48.400;11.770;2023-07-02T06:25:37;22.10;68.40
14850;DHT22;7517;48.400;11.770;2023-07-02T06:28:04;22.10;68.40
14850;DHT22;7517;48.400;11.770;2023-07-02T06:30:33;22.10;68.50
14850;DHT22;7517;48.400;11.770;2023-07-02T06:33:01;22.10;68.50
14850;DHT22;7517;48.400;11.770;2023-07-02T06:35:29;22.10;68.30
14850;DHT22;7517;48.400;11.770;2023-07-02T06:37:56;22.10;68.50
14850;DHT22;7517;48.400;11.770;2023-07-02T06:40:23;22.10;68.40
14850;DHT22;7517;48.400;11.770;2023-07-02T06:42:51;22.10;68.60
14850;DHT22;7517;48.400;11.770;2023-07-02T06:45:18;22.10;68.90
14850;DHT22;7517;48.400;11.770;2023-07-02T06:47:46;22.10;69.00
14850;DHT22;7517;48.400;11.770;2023-07-02T06:50:13;22.10;69.00
14850;DHT22;7517;48.400;11.770;2023-07-02T06:52:41;22.10;70.00
14850;DHT22;7517;48.400;11.770;2023-07-02T06:55:08;22.10;69.40
14850;DHT22;7517;48.400;11.770;2023-07-02T06:57:42;22.20;69.50
14850;DHT22;7517;48.400;11.770;2023-07-02T07:00:10;22.20;69.40
14850;DHT22;7517;48.400;11.770;2023-07-02T07:02:38;22.20;69.20
14850;DHT22;7517;48.400;11.770;2023-07-02T07:05:08;22.20;69.10
14850;DHT22;7517;48.400;11.770;2023-07-02T07:07:35;22.20;69.00
14850;DHT22;7517;48.400;11.770;2023-07-02T07:10:02;22.20;69.00
14850;DHT22;7517;48.400;11.770;2023-07-02T07:12:30;22.20;69.10
14850;DHT22;7517;48.400;11.770;2023-07-02T07:14:58;22.30;69.20
14850;DHT22;7517;48.400;11.770;2023-07-02T07:17:25;22.30;69.10
14850;DHT22;7517;48.400;11.770;2023-07-02T07:19:52;22.30;69.30
14850;DHT22;7517;48.400;11.770;2023-07-02T07:22:20;22.30;68.60
14850;DHT22;7517;48.400;11.770;2023-07-02T07:24:47;22.30;67.90
14850;DHT22;7517;48.400;11.770;2023-07-02T07:27:14;22.30;67.70
14850;DHT22;7517;48.400;11.770;2023-07-02T07:29:42;22.30;67.60
14850;DHT22;7517;48.400;11.770;2023-07-02T07:32:09;22.30;67.80
14850;DHT22;7517;48.400;11.770;2023-07-02T07:34:36;22.30;67.90
14850;DHT22;7517;48.400;11.770;2023-07-02T07:37:04;22.30;67.80
14850;DHT22;7517;48.400;11.770;2023-07-02T07:39:35;22.30;67.20
14850;DHT22;7517;48.400;11.770;2023-07-02T07:42:03;22.20;67.10
14850;DHT22;7517;48.400;11.770;2023-07-02T07:44:31;22.20;67.30
14850;DHT22;7517;48.400;11.770;2023-07-02T07:46:58;22.20;67.70
14850;DHT22;7517;48.400;11.770;2023-07-02T07:49:26;22.20;67.60
14850;DHT22;7517;48.400;11.770;2023-07-02T07:51:53;22.10;67.90
14850;DHT22;7517;48.400;11.770;2023-07-02T07:54:20;22.10;68.20
14850;DHT22;7517;48.400;11.770;2023-07-02T07:56:49;22.10;68.00
14850;DHT22;7517;48.400;11.770;2023-07-02T07:59:16;22.10;68.00
14850;DHT22;7517;48.400;11.770;2023-07-02T08:01:43;22.10;68.40
14850;DHT22;7517;48.400;11.770;2023-07-02T08:04:12;22.00;68.40
14850;DHT22;7517;48.400;11.770;2023-07-02T08:06:39;22.00;68.40
14850;DHT22;7517;48.400;11.770;2023-07-02T08:09:06;22.00;68.40
14850;DHT22;7517;48.400;11.770;2023-07-02T08:11:34;21.90;68.30
14850;DHT22;7517;48.400;11.770;2023-07-02T08:14:03;21.90;68.30
14850;DHT22;7517;48.400;11.770;2023-07-02T08:16:30;21.80;68.40
14850;DHT22;7517;48.400;11.770;2023-07-02T08:18:57;21.70;68.20
14850;DHT22;7517;48.400;11.770;2023-07-02T08:21:25;21.60;68.60
14850;DHT22;7517;48.400;11.770;2023-07-02T08:23:52;21.60;69.10
14850;DHT22;7517;48.400;11.770;2023-07-02T08:26:19;21.60;69.20
14850;DHT22;7517;48.400;11.770;2023-07-02T08:28:47;21.50;69.60
14850;DHT22;7517;48.400;11.770;2023-07-02T08:31:16;21.50;69.80
14850;DHT22;7517;48.400;11.770;2023-07-02T08:33:43;21.40;70.00
14850;DHT22;7517;48.400;11.770;2023-07-02T08:36:11;21.40;70.10
14850;DHT22;7517;48.400;11.770;2023-07-02T08:38:39;21.40;70.30
14850;DHT22;7517;48.400;11.770;2023-07-02T08:41:09;21.40;70.50
14850;DHT22;7517;48.400;11.770;2023-07-02T08:43:37;21.40;70.60
14850;DHT22;7517;48.400;11.770;2023-07-02T08:46:06;21.40;70.60
14850;DHT22;7517;48.400;11.770;2023-07-02T08:48:35;21.40;70.70
14850;DHT22;7517;48.400;11.770;2023-07-02T08:51:03;21.50;70.60
14850;DHT22;7517;48.400;11.770;2023-07-02T08:53:30;21.50;70.30
14850;DHT22;7517;48.400;11.770;2023-07-02T08:55:59;21.60;70.30
14850;DHT22;7517;48.400;11.770;2023-07-02T08:58:27;21.60;70.50
14850;DHT22;7517;48.400;11.770;2023-07-02T09:01:07;21.60;70.90
14850;DHT22;7517;48.400;11.770;2023-07-02T09:03:37;21.70;70.80
14850;DHT22;7517;48.400;11.770;2023-07-02T09:06:05;21.70;70.40
14850;DHT22;7517;48.400;11.770;2023-07-02T09:08:33;21.80;70.40
14850;DHT22;7517;48.400;11.770;2023-07-02T09:11:08;21.90;70.50
14850;DHT22;7517;48.400;11.770;2023-07-02T09:13:43;21.90;70.20
14850;DHT22;7517;48.400;11.770;2023-07-02T09:16:24;22.00;70.60
14850;DHT22;7517;48.400;11.770;2023-07-02T09:19:02;22.10;71.10
14850;DHT22;7517;48.400;11.770;2023-07-02T09:21:42;22.20;71.20
14850;DHT22;7517;48.400;11.770;2023-07-02T09:24:19;22.30;70.90
14850;DHT22;7517;48.400;11.770;2023-07-02T09:26:49;22.40;71.00
14850;DHT22;7517;48.400;11.770;2023-07-02T09:29:20;22.50;71.00
14850;DHT22;7517;48.400;11.770;2023-07-02T09:31:48;22.60;70.80
14850;DHT22;7517;48.400;11.770;2023-07-02T09:34:17;22.70;70.10
14850;DHT22;7517;48.400;11.770;2023-07-02T09:36:44;22.80;69.40
14850;DHT22;7517;48.400;11.770;2023-07-02T09:39:13;22.90;69.30
14850;DHT22;7517;48.400;11.770;2023-07-02T09:41:41;23.00;68.90
14850;DHT22;7517;48.400;11.770;2023-07-02T09:44:09;23.00;68.40
14850;DHT22;7517;48.400;11.770;2023-07-02T09:46:42;23.10;67.80
14850;DHT22;7517;48.400;11.770;2023-07-02T09:49:20;23.10;67.60
14850;DHT22;7517;48.400;11.770;2023-07-02T09:51:49;23.10;67.80
14850;DHT22;7517;48.400;11.770;2023-07-02T09:54:17;23.10;68.10
14850;DHT22;7517;48.400;11.770;2023-07-02T09:56:46;23.20;68.10
14850;DHT22;7517;48.400;11.770;2023-07-02T09:59:13;23.20;67.90
14850;DHT22;7517;48.400;11.770;2023-07-02T10:01:40;23.30;68.00
14850;DHT22;7517;48.400;11.770;2023-07-02T10:04:12;23.30;67.70
14850;DHT22;7517;48.400;11.770;2023-07-02T10:06:49;23.40;67.80
14850;DHT22;7517;48.400;11.770;2023-07-02T10:09:20;23.40;67.50
14850;DHT22;7517;48.400;11.770;2023-07-02T10:12:00;23.40;67.60
14850;DHT22;7517;48.400;11.770;2023-07-02T10:14:41;23.50;67.50
14850;DHT22;7517;48.400;11.770;2023-07-02T10:17:09;23.50;66.10
14850;DHT22;7517;48.400;11.770;2023-07-02T10:19:36;23.50;66.40
14850;DHT22;7517;48.400;11.770;2023-07-02T10:22:18;23.60;66.60
14850;DHT22;7517;48.400;11.770;2023-07-02T10:24:55;23.60;66.60
14850;DHT22;7517;48.400;11.770;2023-07-02T10:27:36;23.10;65.60
14850;DHT22;7517;48.400;11.770;2023-07-02T10:30:04;23.70;66.40
14850;DHT22;7517;48.400;11.770;2023-07-02T10:33:14;23.70;66.10
14850;DHT22;7517;48.400;11.770;2023-07-02T10:35:34;23.80;66.50
14850;DHT22;7517;48.400;11.770;2023-07-02T10:38:04;23.90;66.60
14850;DHT22;7517;48.400;11.770;2023-07-02T10:40:32;24.00;67.30
14850;DHT22;7517;48.400;11.770;2023-07-02T10:43:00;24.10;67.10
14850;DHT22;7517;48.400;11.770;2023-07-02T10:45:35;24.20;67.30
14850;DHT22;7517;48.400;11.770;2023-07-02T10:48:03;24.40;66.60
14850;DHT22;7517;48.400;11.770;2023-07-02T10:50:31;24.60;65.90
14850;DHT22;7517;48.400;11.770;2023-07-02T10:52:59;24.70;66.10
14850;DHT22;7517;48.400;11.770;2023-07-02T10:55:30;24.80;66.10
14850;DHT22;7517;48.400;11.770;2023-07-02T10:58:04;24.90;65.00
14850;DHT22;7517;48.400;11.770;2023-07-02T11:00:42;25.10;65.10
14850;DHT22;7517;48.400;11.770;2023-07-02T11:03:17;25.20;65.00
14850;DHT22;7517;48.400;11.770;2023-07-02T11:05:45;25.30;63.50
14850;DHT22;7517;48.400;11.770;2023-07-02T11:08:13;25.40;63.40
14850;DHT22;7517;48.400;11.770;2023-07-02T11:10:42;25.40;63.30
14850;DHT22;7517;48.400;11.770;2023-07-02T11:13:11;25.50;62.70
14850;DHT22;7517;48.400;11.770;2023-07-02T11:15:39;25.50;62.40
14850;DHT22;7517;48.400;11.770;2023-07-02T11:18:10;25.50;62.40
14850;DHT22;7517;48.400;11.770;2023-07-02T11:20:38;25.50;61.90
14850;DHT22;7517;48.400;11.770;2023-07-02T11:23:16;25.50;61.90
14850;DHT22;7517;48.400;11.770;2023-07-02T11:25:56;25.50;60.80
14850;DHT22;7517;48.400;11.770;2023-07-02T11:28:24;25.50;60.80
14850;DHT22;7517;48.400;11.770;2023-07-02T11:30:52;25.50;61.30
14850;DHT22;7517;48.400;11.770;2023-07-02T11:33:20;25.40;61.30
14850;DHT22;7517;48.400;11.770;2023-07-02T11:35:58;25.40;60.90
14850;DHT22;7517;48.400;11.770;2023-07-02T11:38:26;25.40;60.60
14850;DHT22;7517;48.400;11.770;2023-07-02T11:40:55;25.40;61.00
14850;DHT22;7517;48.400;11.770;2023-07-02T11:43:22;25.40;61.00
14850;DHT22;7517;48.400;11.770;2023-07-02T11:45:50;25.40;61.20
14850;DHT22;7517;48.400;11.770;2023-07-02T11:48:19;25.40;61.20
14850;DHT22;7517;48.400;11.770;2023-07-02T11:50:48;25.40;60.80
14850;DHT22;7517;48.400;11.770;2023-07-02T11:53:15;25.40;60.90
14850;DHT22;7517;48.400;11.770;2023-07-02T11:55:42;25.40;61.10
14850;DHT22;7517;48.400;11.770;2023-07-02T11:58:11;25.40;61.20
14850;DHT22;7517;48.400;11.770;2023-07-02T12:00:41;25.50;61.10
14850;DHT22;7517;48.400;11.770;2023-07-02T12:03:08;25.50;61.20
14850;DHT22;7517;48.400;11.770;2023-07-02T12:05:36;25.50;60.70
14850;DHT22;7517;48.400;11.770;2023-07-02T12:08:04;25.60;60.70
14850;DHT22;7517;48.400;11.770;2023-07-02T12:10:31;25.60;60.70
14850;DHT22;7517;48.400;11.770;2023-07-02T12:12:58;25.60;60.70
14850;DHT22;7517;48.400;11.770;2023-07-02T12:15:27;25.60;60.20
14850;DHT22;7517;48.400;11.770;2023-07-02T12:17:54;25.70;60.00
14850;DHT22;7517;48.400;11.770;2023-07-02T12:20:22;25.70;59.80
14850;DHT22;7517;48.400;11.770;2023-07-02T12:22:49;25.80;59.50
14850;DHT22;7517;48.400;11.770;2023-07-02T12:25:17;25.80;59.40
14850;DHT22;7517;48.400;11.770;2023-07-02T12:27:44;25.90;59.00
14850;DHT22;7517;48.400;11.770;2023-07-02T12:30:12;25.90;58.90
14850;DHT22;7517;48.400;11.770;2023-07-02T12:32:44;26.00;58.90
14850;DHT22;7517;48.400;11.770;2023-07-02T12:35:18;26.10;58.60
14850;DHT22;7517;48.400;11.770;2023-07-02T12:37:46;26.20;58.40
14850;DHT22;7517;48.400;11.770;2023-07-02T12:40:14;26.30;57.60
14850;DHT22;7517;48.400;11.770;2023-07-02T12:42:42;26.40;57.50
14850;DHT22;7517;48.400;11.770;2023-07-02T12:45:11;26.40;57.60
14850;DHT22;7517;48.400;11.770;2023-07-02T12:47:39;26.50;57.10
14850;DHT22;7517;48.400;11.770;2023-07-02T12:50:10;26.50;57.00
14850;DHT22;7517;48.400;11.770;2023-07-02T12:52:38;26.60;56.00
14850;DHT22;7517;48.400;11.770;2023-07-02T12:55:07;26.70;56.00
14850;DHT22;7517;48.400;11.770;2023-07-02T12:57:35;26.70;56.00
14850;DHT22;7517;48.400;11.770;2023-07-02T13:00:03;26.70;55.80
14850;DHT22;7517;48.400;11.770;2023-07-02T13:02:35;26.80;55.80
14850;DHT22;7517;48.400;11.770;2023-07-02T13:05:04;26.80;55.30
14850;DHT22;7517;48.400;11.770;2023-07-02T13:07:34;26.80;55.10
14850;DHT22;7517;48.400;11.770;2023-07-02T13:10:01;26.90;54.50
14850;DHT22;7517;48.400;11.770;2023-07-02T13:12:28;26.90;54.60
14850;DHT22;7517;48.400;11.770;2023-07-02T13:14:56;27.00;54.60
14850;DHT22;7517;48.400;11.770;2023-07-02T13:17:23;26.80;54.80
14850;DHT22;7517;48.400;11.770;2023-07-02T13:19:51;27.10;54.60
14850;DHT22;7517;48.400;11.770;2023-07-02T13:22:18;27.10;54.40
14850;DHT22;7517;48.400;11.770;2023-07-02T13:24:46;27.20;54.20
14850;DHT22;7517;48.400;11.770;2023-07-02T13:27:16;27.20;54.00
14850;DHT22;7517;48.400;11.770;2023-07-02T13:29:44;27.30;54.00
14850;DHT22;7517;48.400;11.770;2023-07-02T13:32:12;27.30;53.80
14850;DHT22;7517;48.400;11.770;2023-07-02T13:34:40;27.40;53.60
14850;DHT22;7517;48.400;11.770;2023-07-02T13:37:08;27.40;53.40
14850;DHT22;7517;48.400;11.770;2023-07-02T13:39:35;27.40;53.30
14850;DHT22;7517;48.400;11.770;2023-07-02T13:42:05;27.50;53.50
14850;DHT22;7517;48.400;11.770;2023-07-02T13:44:34;27.60;53.10
14850;DHT22;7517;48.400;11.770;2023-07-02T13:47:01;27.60;53.40
14850;DHT22;7517;48.400;11.770;2023-07-02T13:49:28;27.60;53.10
14850;DHT22;7517;48.400;11.770;2023-07-02T13:51:55;27.70;53.50
14850;DHT22;7517;48.400;11.770;2023-07-02T13:54:22;27.70;53.30
14850;DHT22;7517;48.400;11.770;2023-07-02T13:56:50;27.80;53.10
14850;DHT22;7517;48.400;11.770;2023-07-02T13:59:20;27.80;52.70
14850;DHT22;7517;48.400;11.770;2023-07-02T14:01:49;27.90;52.50
14850;DHT22;7517;48.400;11.770;2023-07-02T14:04:17;27.90;52.70
14850;DHT22;7517;48.400;11.770;2023-07-02T14:06:45;27.90;52.80
14850;DHT22;7517;48.400;11.770;2023-07-02T14:09:12;27.90;52.80
14850;DHT22;7517;48.400;11.770;2023-07-02T14:11:42;27.90;52.60
14850;DHT22;7517;48.400;11.770;2023-07-02T14:14:10;28.00;52.60
14850;DHT22;7517;48.400;11.770;2023-07-02T14:16:39;27.90;52.50
14850;DHT22;7517;48.400;11.770;2023-07-02T14:19:06;28.00;52.30
14850;DHT22;7517;48.400;11.770;2023-07-02T14:21:35;27.90;52.10
14850;DHT22;7517;48.400;11.770;2023-07-02T14:24:06;27.90;52.00
14850;DHT22;7517;48.400;11.770;2023-07-02T14:26:33;27.90;51.90
14850;DHT22;7517;48.400;11.770;2023-07-02T14:29:01;27.90;52.10
14850;DHT22;7517;48.400;11.770;2023-07-02T14:31:28;27.90;52.10
14850;DHT22;7517;48.400;11.770;2023-07-02T14:33:57;27.90;51.80
14850;DHT22;7517;48.400;11.770;2023-07-02T14:36:25;27.90;51.70
14850;DHT22;7517;48.400;11.770;2023-07-02T14:38:53;27.80;51.70
14850;DHT22;7517;48.400;11.770;2023-07-02T14:41:22;27.90;51.60
14850;DHT22;7517;48.400;11.770;2023-07-02T14:43:50;27.90;51.80
14850;DHT22;7517;48.400;11.770;2023-07-02T14:46:18;27.90;51.50
14850;DHT22;7517;48.400;11.770;2023-07-02T14:48:48;27.90;51.60
14850;DHT22;7517;48.400;11.770;2023-07-02T14:51:18;27.90;51.60
14850;DHT22;7517;48.400;11.770;2023-07-02T14:53:47;27.90;51.50
14850;DHT22;7517;48.400;11.770;2023-07-02T14:56:15;27.90;51.60
14850;DHT22;7517;48.400;11.770;2023-07-02T14:58:44;27.90;51.30
14850;DHT22;7517;48.400;11.770;2023-07-02T15:01:11;27.90;51.30
14850;DHT22;7517;48.400;11.770;2023-07-02T15:03:38;27.90;51.30
14850;DHT22;7517;48.400;11.770;2023-07-02T15:06:07;27.90;51.00
14850;DHT22;7517;48.400;11.770;2023-07-02T15:08:37;27.90;51.20
14850;DHT22;7517;48.400;11.770;2023-07-02T15:11:05;27.90;50.90
14850;DHT22;7517;48.400;11.770;2023-07-02T15:13:35;27.90;50.90
14850;DHT22;7517;48.400;11.770;2023-07-02T15:16:04;27.90;51.00
14850;DHT22;7517;48.400;11.770;2023-07-02T15:18:32;27.90;51.00
14850;DHT22;7517;48.400;11.770;2023-07-02T15:20:59;27.90;51.10
14850;DHT22;7517;48.400;11.770;2023-07-02T15:23:27;27.90;50.90
14850;DHT22;7517;48.400;11.770;2023-07-02T15:25:58;27.90;50.50
14850;DHT22;7517;48.400;11.770;2023-07-02T15:28:27;27.90;50.10
14850;DHT22;7517;48.400;11.770;2023-07-02T15:30:58;27.90;50.10
14850;DHT22;7517;48.400;11.770;2023-07-02T15:33:30;27.90;50.20
14850;DHT22;7517;48.400;11.770;2023-07-02T15:35:59;27.90;50.10
14850;DHT22;7517;48.400;11.770;2023-07-02T15:38:29;27.90;50.30